sensor_id;sensor_type;location;lat;lon;timestamp;temperature;humidity
18884;DHT22;9574;47.282;9.640;2023-04-05T00:01:24;2.50;99.90
18884;DHT22;9574;47.282;9.640;2023-04-05T00:03:55;2.40;99.90
18884;DHT22;9574;47.282;9.640;2023-04-05T00:06:23;2.20;99.90
18884;DHT22;9574;47.282;9.640;2023-04-05T00:08:53;2.30;99.90
18884;DHT22;9574;47.282;9.640;2023-04-05T00:11:22;2.30;99.90
18884;DHT22;9574;47.282;9.640;2023-04-05T00:13:55;2.30;99.90
18884;DHT22;9574;47.282;9.640;2023-04-05T00:16:28;2.30;99.90
18884;DHT22;9574;47.282;9.640;2023-04-05T00:18:56;2.40;99.90
18884;DHT22;9574;47.282;9.640;2023-04-05T00:21:25;2.80;99.90
18884;DHT22;9574;47.282;9.640;2023-04-05T00:23:54;3.30;99.90
18884;DHT22;9574;47.282;9.640;2023-04-05T00:26:23;3.60;99.90
18884;DHT22;9574;47.282;9.640;2023-04-05T00:28:52;3.70;99.90
18884;DHT22;9574;47.282;9.640;2023-04-05T00:31:19;3.80;99.90
18884;DHT22;9574;47.282;9.640;2023-04-05T00:33:48;3.80;99.90
18884;DHT22;9574;47.282;9.640;2023-04-05T00:36:19;3.90;99.90
18884;DHT22;9574;47.282;9.640;2023-04-05T00:38:48;3.80;99.90
18884;DHT22;9574;47.282;9.640;2023-04-05T00:41:16;3.80;99.90
18884;DHT22;9574;47.282;9.640;2023-04-05T00:43:43;3.50;99.90
18884;DHT22;9574;47.282;9.640;2023-04-05T00:46:12;3.10;99.90
18884;DHT22;9574;47.282;9.640;2023-04-05T00:48:41;3.00;99.90
18884;DHT22;9574;47.282;9.640;2023-04-05T00:51:11;2.70;99.90
18884;DHT22;9574;47.282;9.640;2023-04-05T00:53:40;2.50;99.90
18884;DHT22;9574;47.282;9.640;2023-04-05T00:56:07;2.30;99.90
18884;DHT22;9574;47.282;9.640;2023-04-05T00:58:39;2.30;99.90
18884;DHT22;9574;47.282;9.640;2023-04-05T01:01:15;2.30;99.90
18884;DHT22;9574;47.282;9.640;2023-04-05T01:03:48;2.20;99.90
18884;DHT22;9574;47.282;9.640;2023-04-05T01:07:03;2.20;99.90
18884;DHT22;9574;47.282;9.640;2023-04-05T01:09:43;2.10;99.90
18884;DHT22;9574;47.282;9.640;2023-04-05T01:12:16;2.10;99.90
18884;DHT22;9574;47.282;9.640;2023-04-05T01:14:45;2.00;99.90
18884;DHT22;9574;47.282;9.640;2023-04-05T01:17:14;2.10;99.90
18884;DHT22;9574;47.282;9.640;2023-04-05T01:19:47;2.00;99.90
18884;DHT22;9574;47.282;9.640;2023-04-05T01:28:45;2.10;99.90
18884;DHT22;9574;47.282;9.640;2023-04-05T01:31:24;1.90;99.90
18884;DHT22;9574;47.282;9.640;2023-04-05T01:33:57;2.00;99.90
18884;DHT22;9574;47.282;9.640;2023-04-05T01:36:29;2.00;99.90
18884;DHT22;9574;47.282;9.640;2023-04-05T01:38:58;2.00;99.90
18884;DHT22;9574;47.282;9.640;2023-04-05T01:41:26;2.00;99.90
18884;DHT22;9574;47.282;9.640;2023-04-05T01:43:54;2.00;99.90
18884;DHT22;9574;47.282;9.640;2023-04-05T01:46:23;2.40;99.90
18884;DHT22;9574;47.282;9.640;2023-04-05T01:48:51;2.90;99.90
18884;DHT22;9574;47.282;9.640;2023-04-05T01:51:19;2.70;99.90
18884;DHT22;9574;47.282;9.640;2023-04-05T01:53:51;2.30;99.90
18884;DHT22;9574;47.282;9.640;2023-04-05T01:56:18;2.10;99.90
18884;DHT22;9574;47.282;9.640;2023-04-05T01:58:45;2.10;99.90
18884;DHT22;9574;47.282;9.640;2023-04-05T02:01:14;1.90;99.90
18884;DHT22;9574;47.282;9.640;2023-04-05T02:03:42;2.00;99.90
18884;DHT22;9574;47.282;9.640;2023-04-05T02:06:12;2.10;99.90
18884;DHT22;9574;47.282;9.640;2023-04-05T02:08:40;1.90;99.90
18884;DHT22;9574;47.282;9.640;2023-04-05T02:11:07;1.80;99.90
18884;DHT22;9574;47.282;9.640;2023-04-05T02:13:36;1.60;99.90
18884;DHT22;9574;47.282;9.640;2023-04-05T02:16:05;1.60;99.90
18884;DHT22;9574;47.282;9.640;2023-04-05T02:18:32;1.50;99.90
18884;DHT22;9574;47.282;9.640;2023-04-05T02:21:07;1.50;99.90
18884;DHT22;9574;47.282;9.640;2023-04-05T02:23:36;1.50;99.90
18884;DHT22;9574;47.282;9.640;2023-04-05T02:26:04;1.50;99.90
18884;DHT22;9574;47.282;9.640;2023-04-05T02:28:35;1.50;99.90
18884;DHT22;9574;47.282;9.640;2023-04-05T02:31:08;1.60;99.90
18884;DHT22;9574;47.282;9.640;2023-04-05T02:33:36;1.70;99.90
18884;DHT22;9574;47.282;9.640;2023-04-05T02:36:10;1.70;99.90
18884;DHT22;9574;47.282;9.640;2023-04-05T02:38:40;1.70;99.90
18884;DHT22;9574;47.282;9.640;2023-04-05T02:41:09;1.90;99.90
18884;DHT22;9574;47.282;9.640;2023-04-05T02:43:39;2.00;99.90
18884;DHT22;9574;47.282;9.640;2023-04-05T02:46:06;2.00;99.90
18884;DHT22;9574;47.282;9.640;2023-04-05T02:48:34;1.80;99.90
18884;DHT22;9574;47.282;9.640;2023-04-05T02:51:02;1.70;99.90
18884;DHT22;9574;47.282;9.640;2023-04-05T02:53:31;1.60;99.90
18884;DHT22;9574;47.282;9.640;2023-04-05T02:56:01;1.80;99.90
18884;DHT22;9574;47.282;9.640;2023-04-05T02:58:31;1.70;99.90
18884;DHT22;9574;47.282;9.640;2023-04-05T03:01:04;1.70;99.90
18884;DHT22;9574;47.282;9.640;2023-04-05T03:03:33;1.60;99.90
18884;DHT22;9574;47.282;9.640;2023-04-05T03:06:03;1.60;99.90
18884;DHT22;9574;47.282;9.640;2023-04-05T03:08:38;1.60;99.90
18884;DHT22;9574;47.282;9.640;2023-04-05T03:11:10;1.50;99.90
18884;DHT22;9574;47.282;9.640;2023-04-05T03:13:37;1.40;99.90
18884;DHT22;9574;47.282;9.640;2023-04-05T03:16:05;1.20;99.90
18884;DHT22;9574;47.282;9.640;2023-04-05T03:18:33;1.10;99.90
18884;DHT22;9574;47.282;9.640;2023-04-05T03:21:01;1.00;99.90
18884;DHT22;9574;47.282;9.640;2023-04-05T03:23:30;1.00;99.90
18884;DHT22;9574;47.282;9.640;2023-04-05T03:26:00;0.90;99.90
18884;DHT22;9574;47.282;9.640;2023-04-05T03:28:28;0.90;99.90
18884;DHT22;9574;47.282;9.640;2023-04-05T03:30:58;0.80;99.90
18884;DHT22;9574;47.282;9.640;2023-04-05T03:33:26;0.80;99.90
18884;DHT22;9574;47.282;9.640;2023-04-05T03:35:54;0.80;99.90
18884;DHT22;9574;47.282;9.640;2023-04-05T03:38:24;0.80;99.90
18884;DHT22;9574;47.282;9.640;2023-04-05T03:40:58;0.70;99.90
18884;DHT22;9574;47.282;9.640;2023-04-05T03:43:27;0.70;99.90
18884;DHT22;9574;47.282;9.640;2023-04-05T03:45:58;0.80;99.90
18884;DHT22;9574;47.282;9.640;2023-04-05T03:48:26;0.80;99.90
18884;DHT22;9574;47.282;9.640;2023-04-05T03:50:53;0.80;99.90
18884;DHT22;9574;47.282;9.640;2023-04-05T03:53:22;0.80;99.90
18884;DHT22;9574;47.282;9.640;2023-04-05T03:55:54;1.00;99.90
18884;DHT22;9574;47.282;9.640;2023-04-05T03:58:28;0.90;99.90
18884;DHT22;9574;47.282;9.640;2023-04-05T04:01:00;0.90;99.90
18884;DHT22;9574;47.282;9.640;2023-04-05T04:03:29;0.90;99.90
18884;DHT22;9574;47.282;9.640;2023-04-05T04:05:59;0.90;99.90
18884;DHT22;9574;47.282;9.640;2023-04-05T04:08:27;0.80;99.90
18884;DHT22;9574;47.282;9.640;2023-04-05T04:10:56;0.70;99.90
18884;DHT22;9574;47.282;9.640;2023-04-05T04:13:25;0.60;99.90
18884;DHT22;9574;47.282;9.640;2023-04-05T04:15:55;0.60;99.90
18884;DHT22;9574;47.282;9.640;2023-04-05T04:18:22;0.50;99.90
18884;DHT22;9574;47.282;9.640;2023-04-05T04:20:50;0.70;99.90
18884;DHT22;9574;47.282;9.640;2023-04-05T04:23:20;1.10;99.90
18884;DHT22;9574;47.282;9.640;2023-04-05T04:25:51;0.90;99.90
18884;DHT22;9574;47.282;9.640;2023-04-05T04:28:19;0.70;99.90
18884;DHT22;9574;47.282;9.640;2023-04-05T04:30:51;0.70;99.90
18884;DHT22;9574;47.282;9.640;2023-04-05T04:33:19;0.50;99.90
18884;DHT22;9574;47.282;9.640;2023-04-05T04:35:47;0.60;99.90
18884;DHT22;9574;47.282;9.640;2023-04-05T04:38:20;0.50;99.90
18884;DHT22;9574;47.282;9.640;2023-04-05T04:40:51;0.50;99.90
18884;DHT22;9574;47.282;9.640;2023-04-05T04:43:19;0.30;99.90
18884;DHT22;9574;47.282;9.640;2023-04-05T04:45:53;0.30;99.90
18884;DHT22;9574;47.282;9.640;2023-04-05T04:48:23;0.30;99.90
18884;DHT22;9574;47.282;9.640;2023-04-05T04:50:51;0.30;99.90
18884;DHT22;9574;47.282;9.640;2023-04-05T04:53:19;0.40;99.90
18884;DHT22;9574;47.282;9.640;2023-04-05T04:55:46;0.40;99.90
18884;DHT22;9574;47.282;9.640;2023-04-05T04:58:16;0.60;99.90
18884;DHT22;9574;47.282;9.640;2023-04-05T05:00:44;0.50;99.90
18884;DHT22;9574;47.282;9.640;2023-04-05T05:03:16;0.40;99.90
18884;DHT22;9574;47.282;9.640;2023-04-05T05:05:48;0.30;99.90
18884;DHT22;9574;47.282;9.640;2023-04-05T05:08:20;0.20;99.90
18884;DHT22;9574;47.282;9.640;2023-04-05T05:10:50;0.20;99.90
18884;DHT22;9574;47.282;9.640;2023-04-05T05:13:20;0.30;99.90
18884;DHT22;9574;47.282;9.640;2023-04-05T05:15:47;0.40;99.90
18884;DHT22;9574;47.282;9.640;2023-04-05T05:18:18;0.40;99.90
18884;DHT22;9574;47.282;9.640;2023-04-05T05:20:48;0.40;99.90
18884;DHT22;9574;47.282;9.640;2023-04-05T05:23:16;0.50;99.90
18884;DHT22;9574;47.282;9.640;2023-04-05T05:25:43;0.40;99.90
18884;DHT22;9574;47.282;9.640;2023-04-05T05:28:13;0.40;99.90
18884;DHT22;9574;47.282;9.640;2023-04-05T05:30:44;1.00;99.90
18884;DHT22;9574;47.282;9.640;2023-04-05T05:33:11;1.40;99.90
18884;DHT22;9574;47.282;9.640;2023-04-05T05:35:39;1.20;99.90
18884;DHT22;9574;47.282;9.640;2023-04-05T05:38:07;1.00;99.90
18884;DHT22;9574;47.282;9.640;2023-04-05T05:40:40;0.90;99.90
18884;DHT22;9574;47.282;9.640;2023-04-05T05:43:07;0.80;99.90
18884;DHT22;9574;47.282;9.640;2023-04-05T05:45:35;0.70;99.90
18884;DHT22;9574;47.282;9.640;2023-04-05T05:48:03;0.80;99.90
18884;DHT22;9574;47.282;9.640;2023-04-05T05:50:32;0.80;99.90
18884;DHT22;9574;47.282;9.640;2023-04-05T05:53:06;0.70;99.90
18884;DHT22;9574;47.282;9.640;2023-04-05T05:55:38;0.70;99.90
18884;DHT22;9574;47.282;9.640;2023-04-05T05:58:06;0.70;99.90
18884;DHT22;9574;47.282;9.640;2023-04-05T06:00:33;0.70;99.90
18884;DHT22;9574;47.282;9.640;2023-04-05T06:03:01;0.70;99.90
18884;DHT22;9574;47.282;9.640;2023-04-05T06:05:29;0.70;99.90
18884;DHT22;9574;47.282;9.640;2023-04-05T06:07:58;0.80;99.90
18884;DHT22;9574;47.282;9.640;2023-04-05T06:10:31;0.80;99.90
18884;DHT22;9574;47.282;9.640;2023-04-05T06:13:04;0.80;99.90
18884;DHT22;9574;47.282;9.640;2023-04-05T06:15:31;0.90;99.90
18884;DHT22;9574;47.282;9.640;2023-04-05T06:17:58;0.80;99.90
18884;DHT22;9574;47.282;9.640;2023-04-05T06:20:26;0.90;99.90
18884;DHT22;9574;47.282;9.640;2023-04-05T06:22:54;0.90;99.90
18884;DHT22;9574;47.282;9.640;2023-04-05T06:25:23;1.00;99.90
18884;DHT22;9574;47.282;9.640;2023-04-05T06:27:51;1.20;99.90
18884;DHT22;9574;47.282;9.640;2023-04-05T06:30:20;1.30;99.90
18884;DHT22;9574;47.282;9.640;2023-04-05T06:32:48;1.40;99.90
18884;DHT22;9574;47.282;9.640;2023-04-05T06:35:22;1.70;99.90
18884;DHT22;9574;47.282;9.640;2023-04-05T06:37:51;2.20;99.90
18884;DHT22;9574;47.282;9.640;2023-04-05T06:40:19;2.40;99.90
18884;DHT22;9574;47.282;9.640;2023-04-05T06:42:47;2.40;99.90
18884;DHT22;9574;47.282;9.640;2023-04-05T06:45:17;2.80;99.90
18884;DHT22;9574;47.282;9.640;2023-04-05T06:47:44;3.40;99.90
18884;DHT22;9574;47.282;9.640;2023-04-05T06:50:12;3.70;99.90
18884;DHT22;9574;47.282;9.640;2023-04-05T06:52:40;3.90;99.90
18884;DHT22;9574;47.282;9.640;2023-04-05T06:55:07;4.20;99.90
18884;DHT22;9574;47.282;9.640;2023-04-05T06:57:35;4.40;99.90
18884;DHT22;9574;47.282;9.640;2023-04-05T07:00:08;4.40;99.90
18884;DHT22;9574;47.282;9.640;2023-04-05T07:02:40;4.50;99.90
18884;DHT22;9574;47.282;9.640;2023-04-05T07:05:11;4.70;99.90
18884;DHT22;9574;47.282;9.640;2023-04-05T07:07:40;4.90;99.90
18884;DHT22;9574;47.282;9.640;2023-04-05T07:10:16;5.10;99.90
18884;DHT22;9574;47.282;9.640;2023-04-05T07:12:45;5.20;99.90
18884;DHT22;9574;47.282;9.640;2023-04-05T07:15:14;5.10;99.90
18884;DHT22;9574;47.282;9.640;2023-04-05T07:17:45;5.30;99.90
18884;DHT22;9574;47.282;9.640;2023-04-05T07:20:13;5.50;99.90
18884;DHT22;9574;47.282;9.640;2023-04-05T07:22:40;5.70;99.90
18884;DHT22;9574;47.282;9.640;2023-04-05T07:25:11;5.70;99.90
18884;DHT22;9574;47.282;9.640;2023-04-05T07:27:38;5.20;99.90
18884;DHT22;9574;47.282;9.640;2023-04-05T07:30:08;5.30;99.90
18884;DHT22;9574;47.282;9.640;2023-04-05T07:32:37;5.50;99.90
18884;DHT22;9574;47.282;9.640;2023-04-05T07:35:07;5.90;99.90
18884;DHT22;9574;47.282;9.640;2023-04-05T07:37:38;6.30;99.90
18884;DHT22;9574;47.282;9.640;2023-04-05T07:40:06;6.30;99.90
18884;DHT22;9574;47.282;9.640;2023-04-05T07:42:35;6.40;99.90
18884;DHT22;9574;47.282;9.640;2023-04-05T07:45:03;6.40;99.90
18884;DHT22;9574;47.282;9.640;2023-04-05T07:47:33;6.40;99.90
18884;DHT22;9574;47.282;9.640;2023-04-05T07:50:03;6.50;99.90
18884;DHT22;9574;47.282;9.640;2023-04-05T07:52:34;6.70;99.90
18884;DHT22;9574;47.282;9.640;2023-04-05T07:55:02;6.80;99.90
18884;DHT22;9574;47.282;9.640;2023-04-05T07:57:31;6.80;99.90
18884;DHT22;9574;47.282;9.640;2023-04-05T07:59:59;6.90;99.90
18884;DHT22;9574;47.282;9.640;2023-04-05T08:02:26;7.10;99.90
18884;DHT22;9574;47.282;9.640;2023-04-05T08:04:54;7.20;99.90
18884;DHT22;9574;47.282;9.640;2023-04-05T08:07:22;6.80;99.90
18884;DHT22;9574;47.282;9.640;2023-04-05T08:09:51;6.70;99.90
18884;DHT22;9574;47.282;9.640;2023-04-05T08:12:22;6.90;99.90
18884;DHT22;9574;47.282;9.640;2023-04-05T08:14:51;7.20;99.90
18884;DHT22;9574;47.282;9.640;2023-04-05T08:17:18;7.40;99.90
18884;DHT22;9574;47.282;9.640;2023-04-05T08:19:47;7.30;99.90
18884;DHT22;9574;47.282;9.640;2023-04-05T08:22:17;7.10;99.90
18884;DHT22;9574;47.282;9.640;2023-04-05T08:24:45;7.60;99.90
18884;DHT22;9574;47.282;9.640;2023-04-05T08:27:15;7.90;99.90
18884;DHT22;9574;47.282;9.640;2023-04-05T08:29:43;8.20;99.90
18884;DHT22;9574;47.282;9.640;2023-04-05T08:32:12;8.30;99.90
18884;DHT22;9574;47.282;9.640;2023-04-05T08:34:39;8.60;99.90
18884;DHT22;9574;47.282;9.640;2023-04-05T08:37:07;8.70;99.90
18884;DHT22;9574;47.282;9.640;2023-04-05T08:39:35;8.80;99.90
18884;DHT22;9574;47.282;9.640;2023-04-05T08:42:11;8.60;99.90
18884;DHT22;9574;47.282;9.640;2023-04-05T08:44:43;8.90;99.90
18884;DHT22;9574;47.282;9.640;2023-04-05T08:47:12;8.60;99.90
18884;DHT22;9574;47.282;9.640;2023-04-05T08:49:44;8.30;99.90
18884;DHT22;9574;47.282;9.640;2023-04-05T08:52:13;8.40;99.90
18884;DHT22;9574;47.282;9.640;2023-04-05T08:54:40;8.80;99.90
18884;DHT22;9574;47.282;9.640;2023-04-05T08:57:08;8.90;99.90
18884;DHT22;9574;47.282;9.640;2023-04-05T08:59:41;9.30;99.90
18884;DHT22;9574;47.282;9.640;2023-04-05T09:02:14;9.50;99.90
18884;DHT22;9574;47.282;9.640;2023-04-05T09:04:44;9.70;99.90
18884;DHT22;9574;47.282;9.640;2023-04-05T09:07:13;9.60;99.90
18884;DHT22;9574;47.282;9.640;2023-04-05T09:09:46;9.60;99.90
18884;DHT22;9574;47.282;9.640;2023-04-05T09:12:14;9.70;99.90
18884;DHT22;9574;47.282;9.640;2023-04-05T09:14:43;9.90;99.90
18884;DHT22;9574;47.282;9.640;2023-04-05T09:17:10;10.00;99.90
18884;DHT22;9574;47.282;9.640;2023-04-05T09:19:38;10.10;99.90
18884;DHT22;9574;47.282;9.640;2023-04-05T09:22:07;10.00;99.90
18884;DHT22;9574;47.282;9.640;2023-04-05T09:24:37;10.00;99.90
18884;DHT22;9574;47.282;9.640;2023-04-05T09:27:08;10.40;99.90
18884;DHT22;9574;47.282;9.640;2023-04-05T09:29:36;10.70;99.90
18884;DHT22;9574;47.282;9.640;2023-04-05T09:32:11;10.70;99.90
18884;DHT22;9574;47.282;9.640;2023-04-05T09:34:42;10.70;99.90
18884;DHT22;9574;47.282;9.640;2023-04-05T09:37:14;10.70;99.90
18884;DHT22;9574;47.282;9.640;2023-04-05T09:39:42;10.80;99.90
18884;DHT22;9574;47.282;9.640;2023-04-05T09:42:15;10.90;99.90
18884;DHT22;9574;47.282;9.640;2023-04-05T09:44:52;10.90;99.90
18884;DHT22;9574;47.282;9.640;2023-04-05T09:47:23;11.00;99.90
18884;DHT22;9574;47.282;9.640;2023-04-05T09:49:52;10.80;99.90
18884;DHT22;9574;47.282;9.640;2023-04-05T09:52:24;10.90;99.90
18884;DHT22;9574;47.282;9.640;2023-04-05T09:54:55;11.00;99.90
18884;DHT22;9574;47.282;9.640;2023-04-05T09:57:32;11.10;99.90
18884;DHT22;9574;47.282;9.640;2023-04-05T10:00:03;10.80;99.90
18884;DHT22;9574;47.282;9.640;2023-04-05T10:02:38;11.10;99.90
18884;DHT22;9574;47.282;9.640;2023-04-05T10:05:06;11.50;99.90
18884;DHT22;9574;47.282;9.640;2023-04-05T10:07:38;11.60;99.90
18884;DHT22;9574;47.282;9.640;2023-04-05T10:10:08;11.60;99.90
18884;DHT22;9574;47.282;9.640;2023-04-05T10:12:40;11.50;99.90
18884;DHT22;9574;47.282;9.640;2023-04-05T10:15:14;11.70;99.90
18884;DHT22;9574;47.282;9.640;2023-04-05T10:17:48;11.90;99.90
18884;DHT22;9574;47.282;9.640;2023-04-05T10:20:22;11.90;99.90
18884;DHT22;9574;47.282;9.640;2023-04-05T10:22:58;11.70;99.90
18884;DHT22;9574;47.282;9.640;2023-04-05T10:25:34;11.90;99.90
18884;DHT22;9574;47.282;9.640;2023-04-05T10:28:04;12.20;99.90
18884;DHT22;9574;47.282;9.640;2023-04-05T10:30:38;12.30;99.90
18884;DHT22;9574;47.282;9.640;2023-04-05T10:33:18;12.40;99.90
18884;DHT22;9574;47.282;9.640;2023-04-05T10:35:58;12.50;99.90
18884;DHT22;9574;47.282;9.640;2023-04-05T10:38:48;12.40;99.90
18884;DHT22;9574;47.282;9.640;2023-04-05T10:41:18;12.40;99.90
18884;DHT22;9574;47.282;9.640;2023-04-05T10:43:46;12.20;99.90
18884;DHT22;9574;47.282;9.640;2023-04-05T10:46:20;12.10;99.90
18884;DHT22;9574;47.282;9.640;2023-04-05T10:48:58;12.20;99.90
18884;DHT22;9574;47.282;9.640;2023-04-05T10:51:28;12.10;99.90
18884;DHT22;9574;47.282;9.640;2023-04-05T10:53:56;12.10;99.90
18884;DHT22;9574;47.282;9.640;2023-04-05T10:56:31;12.20;99.90
18884;DHT22;9574;47.282;9.640;2023-04-05T10:59:01;12.30;99.90
18884;DHT22;9574;47.282;9.640;2023-04-05T11:01:30;12.20;99.90
18884;DHT22;9574;47.282;9.640;2023-04-05T11:04:10;12.10;99.90
18884;DHT22;9574;47.282;9.640;2023-04-05T11:06:38;12.30;99.90
18884;DHT22;9574;47.282;9.640;2023-04-05T11:09:13;12.50;99.90
18884;DHT22;9574;47.282;9.640;2023-04-05T11:11:43;12.50;99.90
18884;DHT22;9574;47.282;9.640;2023-04-05T11:14:20;12.30;99.90
18884;DHT22;9574;47.282;9.640;2023-04-05T11:16:54;12.30;99.90
18884;DHT22;9574;47.282;9.640;2023-04-05T11:19:49;12.50;99.90
18884;DHT22;9574;47.282;9.640;2023-04-05T11:22:25;12.30;99.90
18884;DHT22;9574;47.282;9.640;2023-04-05T11:24:55;12.40;99.90
18884;DHT22;9574;47.282;9.640;2023-04-05T11:27:24;12.00;99.90
18884;DHT22;9574;47.282;9.640;2023-04-05T11:29:54;12.20;99.90
18884;DHT22;9574;47.282;9.640;2023-04-05T11:32:21;12.30;99.90
18884;DHT22;9574;47.282;9.640;2023-04-05T11:35:05;12.10;99.90
18884;DHT22;9574;47.282;9.640;2023-04-05T11:37:52;12.20;99.90
18884;DHT22;9574;47.282;9.640;2023-04-05T11:40:30;12.30;99.90
18884;DHT22;9574;47.282;9.640;2023-04-05T11:43:00;12.40;99.90
18884;DHT22;9574;47.282;9.640;2023-04-05T11:45:36;12.90;99.90
18884;DHT22;9574;47.282;9.640;2023-04-05T11:48:04;12.90;99.90
18884;DHT22;9574;47.282;9.640;2023-04-05T11:50:35;13.10;99.90
18884;DHT22;9574;47.282;9.640;2023-04-05T11:53:09;13.20;99.60
18884;DHT22;9574;47.282;9.640;2023-04-05T11:55:38;12.70;99.90
18884;DHT22;9574;47.282;9.640;2023-04-05T11:58:13;12.70;98.50
18884;DHT22;9574;47.282;9.640;2023-04-05T12:00:41;12.70;99.20
18884;DHT22;9574;47.282;9.640;2023-04-05T12:03:11;12.60;99.70
18884;DHT22;9574;47.282;9.640;2023-04-05T12:05:48;12.60;99.90
18884;DHT22;9574;47.282;9.640;2023-04-05T12:08:16;12.80;99.50
18884;DHT22;9574;47.282;9.640;2023-04-05T12:10:54;12.90;99.60
18884;DHT22;9574;47.282;9.640;2023-04-05T12:13:26;12.90;98.60
18884;DHT22;9574;47.282;9.640;2023-04-05T12:15:56;12.80;98.30
18884;DHT22;9574;47.282;9.640;2023-04-05T12:18:24;13.10;99.00
18884;DHT22;9574;47.282;9.640;2023-04-05T12:20:54;13.20;99.20
18884;DHT22;9574;47.282;9.640;2023-04-05T12:23:25;13.30;99.00
18884;DHT22;9574;47.282;9.640;2023-04-05T12:25:54;12.60;98.00
18884;DHT22;9574;47.282;9.640;2023-04-05T12:28:22;12.70;97.50
18884;DHT22;9574;47.282;9.640;2023-04-05T12:30:52;13.00;98.70
18884;DHT22;9574;47.282;9.640;2023-04-05T12:33:28;13.20;98.80
18884;DHT22;9574;47.282;9.640;2023-04-05T12:35:58;13.40;98.20
18884;DHT22;9574;47.282;9.640;2023-04-05T12:38:26;13.40;97.00
18884;DHT22;9574;47.282;9.640;2023-04-05T12:40:58;13.20;98.00
18884;DHT22;9574;47.282;9.640;2023-04-05T12:43:36;13.10;98.10
18884;DHT22;9574;47.282;9.640;2023-04-05T12:46:08;13.20;97.70
18884;DHT22;9574;47.282;9.640;2023-04-05T12:48:36;13.30;97.70
18884;DHT22;9574;47.282;9.640;2023-04-05T12:51:16;13.50;97.40
18884;DHT22;9574;47.282;9.640;2023-04-05T12:53:45;13.60;98.60
18884;DHT22;9574;47.282;9.640;2023-04-05T12:56:15;13.70;97.20
18884;DHT22;9574;47.282;9.640;2023-04-05T12:58:48;13.70;97.40
18884;DHT22;9574;47.282;9.640;2023-04-05T13:01:17;13.80;97.30
18884;DHT22;9574;47.282;9.640;2023-04-05T13:03:46;13.50;97.90
18884;DHT22;9574;47.282;9.640;2023-04-05T13:06:18;13.00;99.20
18884;DHT22;9574;47.282;9.640;2023-04-05T13:08:48;13.10;98.40
18884;DHT22;9574;47.282;9.640;2023-04-05T13:11:17;13.30;98.50
18884;DHT22;9574;47.282;9.640;2023-04-05T13:13:46;12.90;98.40
18884;DHT22;9574;47.282;9.640;2023-04-05T13:16:15;13.00;98.10
18884;DHT22;9574;47.282;9.640;2023-04-05T13:18:44;13.40;98.60
18884;DHT22;9574;47.282;9.640;2023-04-05T13:21:14;13.80;96.90
18884;DHT22;9574;47.282;9.640;2023-04-05T13:23:42;14.00;99.20
18884;DHT22;9574;47.282;9.640;2023-04-05T13:26:10;14.40;96.60
18884;DHT22;9574;47.282;9.640;2023-04-05T13:28:39;14.80;96.80
18884;DHT22;9574;47.282;9.640;2023-04-05T13:31:08;14.50;95.70
18884;DHT22;9574;47.282;9.640;2023-04-05T13:33:35;14.60;96.50
18884;DHT22;9574;47.282;9.640;2023-04-05T13:36:05;14.30;95.90
18884;DHT22;9574;47.282;9.640;2023-04-05T13:38:37;14.10;95.10
18884;DHT22;9574;47.282;9.640;2023-04-05T13:41:06;13.70;96.90
18884;DHT22;9574;47.282;9.640;2023-04-05T13:43:33;13.60;97.20
18884;DHT22;9574;47.282;9.640;2023-04-05T13:46:00;13.80;97.20
18884;DHT22;9574;47.282;9.640;2023-04-05T13:48:27;14.10;96.00
18884;DHT22;9574;47.282;9.640;2023-04-05T13:50:57;14.10;96.40
18884;DHT22;9574;47.282;9.640;2023-04-05T13:53:26;14.00;97.40
18884;DHT22;9574;47.282;9.640;2023-04-05T13:55:55;14.00;96.10
18884;DHT22;9574;47.282;9.640;2023-04-05T13:58:24;14.30;96.80
18884;DHT22;9574;47.282;9.640;2023-04-05T14:00:53;14.40;95.90
18884;DHT22;9574;47.282;9.640;2023-04-05T14:03:21;14.60;95.60
18884;DHT22;9574;47.282;9.640;2023-04-05T14:05:48;14.50;95.40
18884;DHT22;9574;47.282;9.640;2023-04-05T14:08:17;14.60;95.30
18884;DHT22;9574;47.282;9.640;2023-04-05T14:10:51;14.70;97.20
18884;DHT22;9574;47.282;9.640;2023-04-05T14:13:28;14.90;94.80
18884;DHT22;9574;47.282;9.640;2023-04-05T14:15:55;14.80;94.10
18884;DHT22;9574;47.282;9.640;2023-04-05T14:18:22;14.70;94.70
18884;DHT22;9574;47.282;9.640;2023-04-05T14:20:51;14.60;96.50
18884;DHT22;9574;47.282;9.640;2023-04-05T14:23:18;14.50;96.40
18884;DHT22;9574;47.282;9.640;2023-04-05T14:25:48;14.60;95.90
18884;DHT22;9574;47.282;9.640;2023-04-05T14:28:17;15.00;93.80
18884;DHT22;9574;47.282;9.640;2023-04-05T14:30:48;15.00;94.30
18884;DHT22;9574;47.282;9.640;2023-04-05T14:33:16;15.10;94.30
18884;DHT22;9574;47.282;9.640;2023-04-05T14:35:46;14.80;94.00
18884;DHT22;9574;47.282;9.640;2023-04-05T14:38:15;14.80;93.50
18884;DHT22;9574;47.282;9.640;2023-04-05T14:40:42;14.70;94.40
18884;DHT22;9574;47.282;9.640;2023-04-05T14:43:14;14.20;94.60
18884;DHT22;9574;47.282;9.640;2023-04-05T14:45:42;13.90;95.10
18884;DHT22;9574;47.282;9.640;2023-04-05T14:48:13;14.00;94.10
18884;DHT22;9574;47.282;9.640;2023-04-05T14:50:42;14.00;94.80
18884;DHT22;9574;47.282;9.640;2023-04-05T14:53:10;14.20;94.30
18884;DHT22;9574;47.282;9.640;2023-04-05T14:55:39;13.80;94.10
18884;DHT22;9574;47.282;9.640;2023-04-05T14:58:07;13.20;93.70
18884;DHT22;9574;47.282;9.640;2023-04-05T15:00:36;13.10;93.90
18884;DHT22;9574;47.282;9.640;2023-04-05T15:03:05;12.90;95.00
18884;DHT22;9574;47.282;9.640;2023-04-05T15:05:37;12.80;95.10
18884;DHT22;9574;47.282;9.640;2023-04-05T15:08:08;12.60;94.90
18884;DHT22;9574;47.282;9.640;2023-04-05T15:10:37;12.60;96.40
18884;DHT22;9574;47.282;9.640;2023-04-05T15:13:05;12.80;96.60
18884;DHT22;9574;47.282;9.640;2023-04-05T15:15:33;13.40;96.30
18884;DHT22;9574;47.282;9.640;2023-04-05T15:18:03;13.40;94.20
18884;DHT22;9574;47.282;9.640;2023-04-05T15:20:34;13.50;93.00
18884;DHT22;9574;47.282;9.640;2023-04-05T15:23:03;13.50;94.10
18884;DHT22;9574;47.282;9.640;2023-04-05T15:25:32;13.20;93.90
18884;DHT22;9574;47.282;9.640;2023-04-05T15:28:00;13.10;94.10
18884;DHT22;9574;47.282;9.640;2023-04-05T15:30:30;13.10;94.00
18884;DHT22;9574;47.282;9.640;2023-04-05T15:32:58;13.10;94.30
18884;DHT22;9574;47.282;9.640;2023-04-05T15:35:26;13.40;92.80
18884;DHT22;9574;47.282;9.640;2023-04-05T15:37:58;13.00;92.50
18884;DHT22;9574;47.282;9.640;2023-04-05T15:40:26;12.90;93.50
18884;DHT22;9574;47.282;9.640;2023-04-05T15:42:58;12.80;92.40
18884;DHT22;9574;47.282;9.640;2023-04-05T15:45:25;12.70;92.40
18884;DHT22;9574;47.282;9.640;2023-04-05T15:47:53;12.30;92.10
18884;DHT22;9574;47.282;9.640;2023-04-05T15:50:23;12.50;92.80
18884;DHT22;9574;47.282;9.640;2023-04-05T15:52:59;12.50;92.60
18884;DHT22;9574;47.282;9.640;2023-04-05T15:55:34;12.30;93.00
18884;DHT22;9574;47.282;9.640;2023-04-05T15:58:05;12.40;93.40
18884;DHT22;9574;47.282;9.640;2023-04-05T16:00:32;11.90;93.30
18884;DHT22;9574;47.282;9.640;2023-04-05T16:03:01;11.90;94.50
18884;DHT22;9574;47.282;9.640;2023-04-05T16:05:29;11.50;94.60
18884;DHT22;9574;47.282;9.640;2023-04-05T16:07:59;11.60;92.30
18884;DHT22;9574;47.282;9.640;2023-04-05T16:10:26;11.80;93.30
18884;DHT22;9574;47.282;9.640;2023-04-05T16:12:54;11.70;94.00
18884;DHT22;9574;47.282;9.640;2023-04-05T16:15:21;11.80;92.20
18884;DHT22;9574;47.282;9.640;2023-04-05T16:17:49;11.70;92.00
18884;DHT22;9574;47.282;9.640;2023-04-05T16:20:18;11.50;92.10